createdAt,value
2023-01-13T00:00:19.314Z,99718.38
2023-01-13T00:02:49.218Z,99720.84
2023-01-13T00:05:19.173Z,99623.72
2023-01-13T00:07:49.870Z,99674.88
2023-01-13T00:10:20.142Z,99628.00
2023-01-13T00:12:49.978Z,99687.69
2023-01-13T00:15:22.460Z,99679.13
2023-01-13T00:17:52.391Z,99692.72
2023-01-13T00:20:22.371Z,99681.66
2023-01-13T00:22:52.291Z,99663.81
2023-01-13T00:25:22.143Z,99649.28
2023-01-13T00:27:52.012Z,99666.31
2023-01-13T00:30:25.379Z,99667.16
2023-01-13T00:32:55.912Z,99655.31
2023-01-13T00:35:25.774Z,99664.63
2023-01-13T00:37:55.622Z,99683.41
2023-01-13T00:40:25.473Z,99678.31
2023-01-13T00:43:07.886Z,99618.63
2023-01-13T00:45:41.170Z,99683.31
2023-01-13T00:48:10.991Z,99689.31
2023-01-13T00:50:41.270Z,99679.94
2023-01-13T00:53:11.168Z,99691.03
2023-01-13T00:55:41.032Z,99671.53
2023-01-13T00:58:10.907Z,99672.34
2023-01-13T01:00:43.439Z,99665.50
2023-01-13T01:03:13.874Z,99686.81
2023-01-13T01:05:43.753Z,99688.50
2023-01-13T01:08:13.594Z,99649.28
2023-01-13T01:10:43.429Z,99684.22
2023-01-13T01:13:17.402Z,99673.09
2023-01-13T01:15:50.158Z,99683.31
2023-01-13T01:18:20.053Z,99688.47
2023-01-13T01:20:49.954Z,99696.88
2023-01-13T01:23:19.830Z,99696.94
2023-01-13T01:25:49.617Z,99698.66
2023-01-13T01:28:20.917Z,99621.81
2023-01-13T01:30:54.737Z,99690.06
2023-01-13T01:33:24.962Z,99676.34
2023-01-13T01:35:54.992Z,99674.75
2023-01-13T01:38:24.872Z,99655.13
2023-01-13T01:40:54.674Z,99675.56
2023-01-13T01:43:38.663Z,99667.91
2023-01-13T01:46:11.188Z,99703.59
2023-01-13T01:48:45.060Z,99710.44
2023-01-13T01:51:16.579Z,99694.22
2023-01-13T01:53:48.305Z,99701.03
2023-01-13T01:56:18.980Z,99687.38
2023-01-13T01:58:52.436Z,99702.66
2023-01-13T02:01:25.049Z,99695.00
2023-01-13T02:04:00.908Z,99636.16
2023-01-13T02:06:32.871Z,99698.34
2023-01-13T02:09:03.628Z,99687.28
2023-01-13T02:11:47.873Z,99692.44
2023-01-13T02:14:17.969Z,99685.59
2023-01-13T02:17:18.073Z,99644.69
2023-01-13T02:20:19.376Z,99683.91
2023-01-13T02:23:40.751Z,99690.66
2023-01-13T02:26:35.780Z,99676.16
2023-01-13T02:29:29.536Z,99700.84
2023-01-13T02:32:12.221Z,99694.00
2023-01-13T02:34:46.374Z,99673.47
2023-01-13T02:37:23.071Z,99702.50
2023-01-13T02:40:00.234Z,99672.56
2023-01-13T02:42:47.939Z,99714.31
2023-01-13T02:45:22.769Z,99727.91
2023-01-13T02:47:56.199Z,99710.00
2023-01-13T02:50:31.877Z,99716.03
2023-01-13T02:53:06.431Z,99696.34
2023-01-13T02:55:40.185Z,99721.94
2023-01-13T02:58:13.381Z,99721.09
2023-01-13T03:00:43.945Z,99730.38
2023-01-13T03:03:16.507Z,99732.13
2023-01-13T03:05:49.051Z,99723.53
2023-01-13T03:08:42.845Z,99720.75
2023-01-13T03:11:14.671Z,99715.09
2023-01-13T03:14:03.423Z,99739.66
2023-01-13T03:16:42.463Z,99676.41
2023-01-13T03:19:24.864Z,99719.09
2023-01-13T03:21:57.887Z,99748.03
2023-01-13T03:24:33.579Z,99706.22
2023-01-13T03:27:07.062Z,99756.50
2023-01-13T03:29:40.376Z,99747.06
2023-01-13T03:32:16.524Z,99748.91
2023-01-13T03:34:52.262Z,99760.00
2023-01-13T03:37:26.578Z,99730.06
2023-01-13T03:40:01.694Z,99727.44
2023-01-13T03:42:35.090Z,99743.75
2023-01-13T03:45:08.962Z,99729.28
2023-01-13T03:47:43.915Z,99747.06
2023-01-13T03:50:22.301Z,99735.94
2023-01-13T03:52:55.917Z,99724.97
2023-01-13T03:55:31.344Z,99737.75
2023-01-13T03:58:07.810Z,99728.22
2023-01-13T04:00:45.363Z,99738.50
2023-01-13T04:03:19.456Z,99737.50
2023-01-13T04:05:57.864Z,99742.63
2023-01-13T04:08:29.883Z,99743.53
2023-01-13T04:11:06.256Z,99741.84
2023-01-13T04:13:40.215Z,99735.91
2023-01-13T04:16:11.559Z,99735.88
2023-01-13T04:18:42.627Z,99746.09
2023-01-13T04:21:14.836Z,99741.06
2023-01-13T04:23:44.507Z,99722.38
2023-01-13T04:26:14.189Z,99723.03
2023-01-13T04:28:43.821Z,99720.44
2023-01-13T04:31:13.527Z,99719.50
2023-01-13T04:33:43.234Z,99720.25
2023-01-13T04:36:15.801Z,99726.22
2023-01-13T04:38:45.532Z,99712.59
2023-01-13T04:41:15.170Z,99709.28
2023-01-13T04:43:44.755Z,99702.31
2023-01-13T04:46:14.444Z,99714.19
2023-01-13T04:48:44.061Z,99722.75
2023-01-13T04:51:16.229Z,99728.63
2023-01-13T04:53:46.893Z,99724.50
2023-01-13T04:56:16.490Z,99721.13
2023-01-13T04:58:46.080Z,99704.19
2023-01-13T05:01:15.739Z,99699.97
2023-01-13T05:03:45.378Z,99693.97
2023-01-13T05:06:17.557Z,99701.66
2023-01-13T05:08:47.143Z,99664.84
2023-01-13T05:11:29.230Z,99666.56
2023-01-13T05:14:11.356Z,99694.41
2023-01-13T05:16:53.307Z,99627.00
2023-01-13T05:19:22.894Z,99703.09
2023-01-13T05:22:07.639Z,99701.44
2023-01-13T05:24:49.753Z,99703.09
2023-01-13T05:27:19.338Z,99705.53
2023-01-13T05:29:48.943Z,99706.47
2023-01-13T05:32:18.559Z,99691.97
2023-01-13T05:34:48.139Z,99702.13
2023-01-13T05:37:20.335Z,99697.88
2023-01-13T05:40:02.467Z,99681.72
2023-01-13T05:42:44.587Z,99673.28
2023-01-13T05:45:14.967Z,99666.44
2023-01-13T05:47:44.573Z,99645.00
2023-01-13T05:50:14.210Z,99669.66
2023-01-13T05:52:46.863Z,99676.66
2023-01-13T05:55:16.527Z,99667.22
2023-01-13T05:57:46.094Z,99655.25
2023-01-13T06:00:16.948Z,99678.13
2023-01-13T06:02:46.548Z,99652.53
2023-01-13T06:05:16.239Z,99676.50
2023-01-13T06:07:48.371Z,99682.63
2023-01-13T06:10:18.161Z,99680.06
2023-01-13T06:12:47.744Z,99686.00
2023-01-13T06:15:17.466Z,99685.94
2023-01-13T06:17:47.030Z,99688.53
2023-01-13T06:20:17.825Z,99685.97
2023-01-13T06:22:52.660Z,99686.78
2023-01-13T06:25:28.868Z,99674.94
2023-01-13T06:28:01.843Z,99678.38
2023-01-13T06:30:38.581Z,99638.25
2023-01-13T06:33:11.844Z,99676.47
2023-01-13T06:35:44.546Z,99652.75
2023-01-13T06:38:19.751Z,99675.75
2023-01-13T06:40:50.001Z,99667.91
2023-01-13T06:43:17.841Z,99666.38
2023-01-13T06:45:53.683Z,99666.19
2023-01-13T06:48:27.629Z,99678.97
2023-01-13T06:50:57.360Z,99666.13
2023-01-13T06:53:29.629Z,99679.81
2023-01-13T06:55:59.225Z,99649.13
2023-01-13T06:58:28.896Z,99688.34
2023-01-13T07:01:02.904Z,99702.81
2023-01-13T07:03:32.605Z,99706.06
2023-01-13T07:06:02.446Z,99691.53
2023-01-13T07:08:34.625Z,99719.59
2023-01-13T07:11:04.378Z,99707.69
2023-01-13T07:13:46.506Z,99721.31
2023-01-13T07:16:16.167Z,99694.88
2023-01-13T07:18:45.815Z,99729.84
2023-01-13T07:21:18.953Z,99728.19
2023-01-13T07:23:51.270Z,99736.69
2023-01-13T07:26:20.915Z,99635.22
2023-01-13T07:28:50.547Z,99721.31
2023-01-13T07:31:22.605Z,99692.22
2023-01-13T07:33:52.376Z,99723.84
2023-01-13T07:36:22.053Z,99739.94
2023-01-13T07:38:54.973Z,99706.75
2023-01-13T07:41:37.130Z,99730.81
2023-01-13T07:44:07.476Z,99733.38
2023-01-13T07:46:37.084Z,99728.25
2023-01-13T07:49:06.800Z,99739.22
2023-01-13T07:51:38.590Z,99737.63
2023-01-13T07:54:10.793Z,99740.16
2023-01-13T07:56:40.401Z,99746.00
2023-01-13T07:59:09.997Z,99736.66
2023-01-13T08:01:39.892Z,99740.94
2023-01-13T08:04:09.644Z,99758.06
2023-01-13T08:06:39.266Z,99746.94
2023-01-13T08:09:11.559Z,99756.41
2023-01-13T08:11:41.165Z,99749.56
2023-01-13T08:14:10.821Z,99734.28
2023-01-13T08:16:40.458Z,99736.75
2023-01-13T08:19:10.093Z,99699.06
2023-01-13T08:21:39.664Z,99743.84
2023-01-13T08:24:13.160Z,99737.97
2023-01-13T08:26:42.760Z,99718.94
2023-01-13T08:29:14.747Z,99754.00
2023-01-13T08:31:44.731Z,99751.09
2023-01-13T08:34:14.451Z,99741.03
2023-01-13T08:36:44.065Z,99766.44
2023-01-13T08:39:16.255Z,99758.00
2023-01-13T08:41:58.761Z,99753.75
2023-01-13T08:44:30.261Z,99763.13
2023-01-13T08:47:00.412Z,99779.34
2023-01-13T08:49:30.023Z,99772.44
2023-01-13T08:51:59.846Z,99770.75
2023-01-13T08:54:32.038Z,99760.69
2023-01-13T08:57:03.416Z,99763.97
2023-01-13T08:59:33.432Z,99756.19
2023-01-13T09:02:03.582Z,99756.34
2023-01-13T09:04:33.405Z,99742.44
2023-01-13T09:07:03.032Z,99768.94
2023-01-13T09:09:35.173Z,99757.13
2023-01-13T09:12:17.455Z,99758.75
2023-01-13T09:14:47.170Z,99765.63
2023-01-13T09:17:16.908Z,99766.66
2023-01-13T09:19:46.602Z,99758.13
2023-01-13T09:22:19.247Z,99710.66
2023-01-13T09:24:51.425Z,99771.88
2023-01-13T09:27:21.068Z,99763.25
2023-01-13T09:29:50.702Z,99777.81
2023-01-13T09:32:20.251Z,99757.34
2023-01-13T09:35:02.891Z,99785.53
2023-01-13T09:37:34.995Z,99787.16
2023-01-13T09:40:10.328Z,99806.72
2023-01-13T09:43:01.471Z,99769.28
2023-01-13T09:45:36.091Z,99781.28
2023-01-13T09:48:15.386Z,99779.44
2023-01-13T09:50:57.579Z,99765.63
2023-01-13T09:53:31.812Z,99789.63
2023-01-13T09:56:04.173Z,99747.72
2023-01-13T09:58:35.564Z,99804.06
2023-01-13T10:01:23.071Z,99802.53
2023-01-13T10:03:52.862Z,99787.16
2023-01-13T10:06:27.282Z,99796.72
2023-01-13T10:08:56.968Z,99793.25
2023-01-13T10:11:49.019Z,99790.38
2023-01-13T10:14:21.515Z,99763.13
2023-01-13T10:16:58.515Z,99767.19
2023-01-13T10:19:32.738Z,99777.56
2023-01-13T10:22:21.841Z,99803.25
2023-01-13T10:25:20.620Z,99774.91
2023-01-13T10:27:55.596Z,99800.69
2023-01-13T10:30:31.171Z,99769.88
2023-01-13T10:33:02.486Z,99796.38
2023-01-13T10:35:51.287Z,99738.44
2023-01-13T10:38:23.812Z,99807.84
2023-01-13T10:40:55.753Z,99776.19
2023-01-13T10:43:29.522Z,99787.34
2023-01-13T10:46:02.424Z,99774.50
2023-01-13T10:48:41.500Z,99793.31
2023-01-13T10:51:14.667Z,99802.75
2023-01-13T10:53:49.602Z,99786.47
2023-01-13T10:56:21.527Z,99790.59
2023-01-13T10:58:54.083Z,99767.56
2023-01-13T11:01:30.605Z,99800.09
2023-01-13T11:04:00.386Z,99797.50
2023-01-13T11:06:34.170Z,99768.41
2023-01-13T11:09:04.130Z,99771.88
2023-01-13T11:11:42.724Z,99789.06
2023-01-13T11:14:37.082Z,99771.09
2023-01-13T11:17:14.960Z,99784.00
2023-01-13T11:19:50.455Z,99798.59
2023-01-13T11:22:25.731Z,99790.03
2023-01-13T11:24:58.978Z,99790.88
2023-01-13T11:27:40.961Z,99796.84
2023-01-13T11:30:25.379Z,99817.22
2023-01-13T11:33:07.951Z,99800.16
2023-01-13T11:35:44.230Z,99790.63
2023-01-13T11:38:21.192Z,99771.78
2023-01-13T11:40:53.499Z,99788.94
2023-01-13T11:43:35.025Z,99808.66
2023-01-13T11:46:08.813Z,99812.84
2023-01-13T11:48:43.061Z,99811.28
2023-01-13T11:51:26.815Z,99808.06
2023-01-13T11:54:17.528Z,99810.63
2023-01-13T11:57:06.808Z,99806.38
2023-01-13T11:59:53.123Z,99805.38
2023-01-13T12:02:44.194Z,99764.38
2023-01-13T12:05:23.896Z,99816.47
2023-01-13T12:08:01.444Z,99809.53
2023-01-13T12:10:47.272Z,99781.41
2023-01-13T12:13:27.865Z,99812.22
2023-01-13T12:16:20.204Z,99816.28
2023-01-13T12:19:21.397Z,99822.25
2023-01-13T12:22:00.977Z,99830.13
2023-01-13T12:24:35.281Z,99819.13
2023-01-13T12:27:09.083Z,99811.50
2023-01-13T12:29:41.512Z,99814.16
2023-01-13T12:32:16.703Z,99807.31
2023-01-13T12:34:55.172Z,99806.47
2023-01-13T12:37:33.984Z,99801.34
2023-01-13T12:40:24.233Z,99813.31
2023-01-13T12:43:13.811Z,99820.88
2023-01-13T12:45:43.643Z,99820.00
2023-01-13T12:48:50.922Z,99819.09
2023-01-13T12:51:28.689Z,99805.22
2023-01-13T12:53:59.099Z,99856.94
2023-01-13T12:56:45.070Z,99853.34
2023-01-13T12:59:48.903Z,99871.00
2023-01-13T13:02:35.821Z,99873.34
2023-01-13T13:05:39.425Z,99875.13
2023-01-13T13:08:20.462Z,99870.81
2023-01-13T13:11:03.179Z,99876.84
2023-01-13T13:13:46.435Z,99846.03
2023-01-13T13:16:46.012Z,99890.50
2023-01-13T13:19:49.485Z,99899.88
2023-01-13T13:22:23.740Z,99879.97
2023-01-13T13:25:23.227Z,99892.03
2023-01-13T13:28:11.691Z,99889.50
2023-01-13T13:30:46.768Z,99900.81
2023-01-13T13:33:34.346Z,99881.16
2023-01-13T13:36:16.426Z,99905.84
2023-01-13T13:39:13.511Z,99857.09
2023-01-13T13:42:00.418Z,99903.19
2023-01-13T13:44:56.225Z,99908.44
2023-01-13T13:47:25.909Z,99896.56
2023-01-13T13:49:56.747Z,99910.88
2023-01-13T13:52:33.167Z,99888.78
2023-01-13T13:55:12.668Z,99912.72
2023-01-13T13:57:43.441Z,99902.41
2023-01-13T14:00:24.726Z,99916.13
2023-01-13T14:02:57.255Z,99927.00
2023-01-13T14:05:29.005Z,99942.50
2023-01-13T14:08:04.044Z,99923.09
2023-01-13T14:10:36.019Z,99929.09
2023-01-13T14:13:17.245Z,99931.50
2023-01-13T14:15:51.060Z,99930.75
2023-01-13T14:18:23.107Z,99938.13
2023-01-13T14:20:57.716Z,99945.09
2023-01-13T14:23:31.354Z,99955.31
2023-01-13T14:26:10.010Z,99956.28
2023-01-13T14:28:41.139Z,99922.06
2023-01-13T14:31:15.410Z,99952.88
2023-01-13T14:33:48.754Z,99960.44
2023-01-13T14:36:21.733Z,99943.41
2023-01-13T14:38:53.384Z,99968.97
2023-01-13T14:41:28.761Z,99947.59
2023-01-13T14:44:02.019Z,99944.09
2023-01-13T14:46:43.463Z,99977.31
2023-01-13T14:49:26.450Z,99961.84
2023-01-13T14:51:56.615Z,99987.59
2023-01-13T14:54:51.470Z,99963.69
2023-01-13T14:57:29.457Z,99970.50
2023-01-13T15:00:03.960Z,99951.53
2023-01-13T15:02:47.334Z,99989.88
2023-01-13T15:05:34.336Z,99975.56
2023-01-13T15:08:09.926Z,99999.28
2023-01-13T15:10:48.346Z,99990.66
2023-01-13T15:13:27.791Z,100010.25
2023-01-13T15:16:00.271Z,99978.41
2023-01-13T15:18:32.557Z,100015.22
2023-01-13T15:21:02.364Z,100003.25
2023-01-13T15:23:32.049Z,100035.47
2023-01-13T15:26:03.082Z,100010.94
2023-01-13T15:28:33.401Z,100008.06
2023-01-13T15:31:04.030Z,100033.72
2023-01-13T15:33:36.334Z,100035.38
2023-01-13T15:36:06.288Z,100050.88
2023-01-13T15:38:35.968Z,100052.53
2023-01-13T15:41:05.630Z,100046.31
2023-01-13T15:43:47.788Z,100061.78
2023-01-13T15:46:32.304Z,100052.19
2023-01-13T15:49:12.859Z,100039.53
2023-01-13T15:51:42.758Z,100071.72
2023-01-13T15:54:12.756Z,100075.25
2023-01-13T15:56:42.633Z,100087.94
2023-01-13T15:59:20.162Z,100067.34
2023-01-13T16:01:49.887Z,100068.19
2023-01-13T16:04:22.160Z,100092.94
2023-01-13T16:06:52.004Z,100109.16
2023-01-13T16:09:21.727Z,100097.75
2023-01-13T16:11:51.417Z,100086.56
2023-01-13T16:14:21.120Z,100070.16
2023-01-13T16:16:51.801Z,100129.13
2023-01-13T16:19:24.046Z,100129.09
2023-01-13T16:21:53.697Z,100132.56
2023-01-13T16:24:23.345Z,100148.69
2023-01-13T16:26:53.029Z,100138.44
2023-01-13T16:29:22.668Z,100151.66
2023-01-13T16:31:52.374Z,100148.25
2023-01-13T16:34:24.661Z,100141.91
2023-01-13T16:36:54.326Z,100142.91
2023-01-13T16:39:25.006Z,100148.75
2023-01-13T16:41:54.679Z,100117.19
2023-01-13T16:44:24.317Z,100164.88
2023-01-13T16:46:53.970Z,100150.44
2023-01-13T16:49:26.229Z,100166.91
2023-01-13T16:51:55.874Z,100171.81
2023-01-13T16:54:25.580Z,100171.09
2023-01-13T16:56:55.347Z,100166.63
2023-01-13T16:59:27.038Z,100164.69
2023-01-13T17:01:56.871Z,100170.63
2023-01-13T17:04:29.245Z,100189.22
2023-01-13T17:07:02.023Z,100196.84
2023-01-13T17:09:32.744Z,100205.28
2023-01-13T17:12:05.425Z,100186.63
2023-01-13T17:14:35.199Z,100205.28
2023-01-13T17:17:04.913Z,100204.06
2023-01-13T17:19:37.234Z,100194.63
2023-01-13T17:22:06.957Z,100208.28
2023-01-13T17:24:37.685Z,100143.56
2023-01-13T17:27:07.527Z,100157.56
2023-01-13T17:29:37.319Z,100214.13
2023-01-13T17:32:07.699Z,100219.97
2023-01-13T17:34:40.226Z,100196.81
2023-01-13T17:37:10.022Z,100226.06
2023-01-13T17:39:39.646Z,100225.34
2023-01-13T17:42:09.719Z,100225.50
2023-01-13T17:44:39.954Z,100228.56
2023-01-13T17:47:10.212Z,100212.19
2023-01-13T17:49:42.511Z,100238.84
2023-01-13T17:52:12.317Z,100238.66
2023-01-13T17:54:43.235Z,100228.19
2023-01-13T17:57:13.346Z,100247.09
2023-01-13T17:59:43.609Z,100266.69
2023-01-13T18:02:15.121Z,100255.25
2023-01-13T18:04:47.714Z,100245.16
2023-01-13T18:07:17.328Z,100241.59
2023-01-13T18:09:46.934Z,100263.53
2023-01-13T18:12:17.314Z,100256.03
2023-01-13T18:14:47.165Z,100277.19
2023-01-13T18:17:17.230Z,100226.56
2023-01-13T18:20:02.235Z,100279.63
2023-01-13T18:22:45.481Z,100268.72
2023-01-13T18:25:28.520Z,100263.75
2023-01-13T18:27:59.565Z,100262.50
2023-01-13T18:30:30.122Z,100287.34
2023-01-13T18:33:00.036Z,100263.41
2023-01-13T18:35:32.508Z,100279.41
2023-01-13T18:38:02.428Z,100301.13
2023-01-13T18:40:32.328Z,100262.66
2023-01-13T18:42:59.903Z,100295.13
2023-01-13T18:45:31.495Z,100304.94
2023-01-13T18:48:03.257Z,100290.44
2023-01-13T18:50:37.330Z,100300.47
2023-01-13T18:53:06.973Z,100310.03
2023-01-13T18:55:36.953Z,100313.25
2023-01-13T18:58:06.890Z,100308.38
2023-01-13T19:00:37.712Z,100305.56
2023-01-13T19:05:40.858Z,100332.94
2023-01-13T19:08:10.517Z,100293.38
2023-01-13T19:10:42.245Z,100322.84
2023-01-13T19:13:12.139Z,100322.94
2023-01-13T19:15:41.772Z,100336.69
2023-01-13T19:18:13.463Z,100344.25
2023-01-13T19:20:45.674Z,100342.63
2023-01-13T19:23:15.540Z,100354.63
2023-01-13T19:25:45.157Z,100351.31
2023-01-13T19:28:15.416Z,100361.91
2023-01-13T19:30:45.321Z,100336.22
2023-01-13T19:33:15.258Z,100331.16
2023-01-13T19:35:47.522Z,100337.53
2023-01-13T19:38:17.562Z,100361.44
2023-01-13T19:40:54.872Z,100338.50
2023-01-13T19:43:37.341Z,100330.25
2023-01-13T19:46:07.380Z,100369.41
2023-01-13T19:48:37.870Z,100354.81
2023-01-13T19:51:10.478Z,100361.03
2023-01-13T19:53:40.141Z,100383.47
2023-01-13T19:56:10.616Z,100397.16
2023-01-13T19:58:40.261Z,100398.25
2023-01-13T20:01:11.811Z,100397.38
2023-01-13T20:03:44.144Z,100408.38
2023-01-13T20:06:16.572Z,100395.53
2023-01-13T20:08:48.063Z,100391.44
2023-01-13T20:11:31.360Z,100421.16
2023-01-13T20:14:01.376Z,100422.25
2023-01-13T20:16:33.026Z,100429.94
2023-01-13T20:19:02.962Z,100376.06
2023-01-13T20:21:35.501Z,100331.25
2023-01-13T20:24:05.175Z,100410.38
2023-01-13T20:26:34.957Z,100366.72
2023-01-13T20:29:04.692Z,100433.00
2023-01-13T20:31:34.390Z,100442.38
2023-01-13T20:34:04.107Z,100306.31
2023-01-13T20:36:39.092Z,100459.31
2023-01-13T20:39:09.593Z,100447.25
2023-01-13T20:41:52.093Z,100446.53
2023-01-13T20:44:22.031Z,100461.56
2023-01-13T20:46:54.478Z,100455.63
2023-01-13T20:49:24.885Z,100483.25
2023-01-13T20:51:58.477Z,100478.78
2023-01-13T20:54:28.507Z,100494.25
2023-01-13T20:56:58.101Z,100484.72
2023-01-13T20:59:28.022Z,100480.97
2023-01-13T21:01:57.915Z,100501.34
2023-01-13T21:04:27.841Z,100481.91
2023-01-13T21:07:00.404Z,100456.09
2023-01-13T21:09:30.572Z,100476.75
2023-01-13T21:12:13.077Z,100488.66
2023-01-13T21:14:55.485Z,100474.75
2023-01-13T21:17:38.049Z,100516.50
2023-01-13T21:20:09.175Z,100505.28
2023-01-13T21:22:42.000Z,100504.59
2023-01-13T21:25:12.651Z,100517.25
2023-01-13T21:27:44.031Z,100515.09
2023-01-13T21:30:15.887Z,100494.53
2023-01-13T21:32:46.779Z,100534.00
2023-01-13T21:35:17.375Z,100530.41
2023-01-13T21:37:49.817Z,100516.41
2023-01-13T21:40:19.840Z,100545.28
2023-01-13T21:43:02.076Z,100552.09
2023-01-13T21:45:44.234Z,100553.69
2023-01-13T21:48:14.269Z,100537.78
2023-01-13T21:50:45.318Z,100511.75
2023-01-13T21:53:17.682Z,100564.88
2023-01-13T21:55:47.324Z,100565.66
2023-01-13T21:58:17.563Z,100573.28
2023-01-13T22:00:49.562Z,100500.84
2023-01-13T22:03:19.362Z,100578.13
2023-01-13T22:05:49.070Z,100581.78
2023-01-13T22:08:21.283Z,100589.81
2023-01-13T22:10:58.047Z,100582.50
2023-01-13T22:13:41.111Z,100588.03
2023-01-13T22:16:11.787Z,100567.19
2023-01-13T22:18:41.465Z,100604.19
2023-01-13T22:21:11.210Z,100606.59
2023-01-13T22:23:43.523Z,100617.78
2023-01-13T22:26:14.184Z,100574.44
2023-01-13T22:28:44.253Z,100595.56
2023-01-13T22:31:15.651Z,100624.97
2023-01-13T22:33:47.100Z,100549.75
2023-01-13T22:36:17.802Z,100611.31
2023-01-13T22:38:50.216Z,100635.22
2023-01-13T22:41:19.961Z,100635.22
2023-01-13T22:43:49.656Z,100642.31
2023-01-13T22:46:19.346Z,100632.75
2023-01-13T22:48:51.925Z,100599.69
2023-01-13T22:51:22.944Z,100638.34
2023-01-13T22:53:55.281Z,100632.56
2023-01-13T22:56:26.399Z,100655.31
2023-01-13T22:58:56.615Z,100644.00
2023-01-13T23:01:27.328Z,100654.53
2023-01-13T23:03:57.669Z,100657.66
2023-01-13T23:06:29.410Z,100658.53
2023-01-13T23:09:02.718Z,100645.84
2023-01-13T23:11:32.946Z,100649.78
2023-01-13T23:14:04.198Z,100634.56
2023-01-13T23:16:36.404Z,100670.44
2023-01-13T23:19:06.984Z,100672.56
2023-01-13T23:21:38.803Z,100682.09
2023-01-13T23:24:12.525Z,100674.84
2023-01-13T23:26:42.470Z,100670.53
2023-01-13T23:29:15.068Z,100665.88
2023-01-13T23:31:44.806Z,100670.44
2023-01-13T23:34:14.515Z,100677.22
2023-01-13T23:36:45.556Z,100661.56
2023-01-13T23:39:17.839Z,100682.31
2023-01-13T23:41:47.468Z,100678.53
2023-01-13T23:44:17.137Z,100679.63
2023-01-13T23:46:46.785Z,100667.03
2023-01-13T23:49:16.409Z,100677.50
2023-01-13T23:51:46.057Z,100672.28
2023-01-13T23:54:18.271Z,100670.41
2023-01-13T23:56:48.224Z,100669.81
2023-01-13T23:59:17.873Z,100657.47
